sensor_id;sensor_type;location;lat;lon;timestamp;P1;durP1;ratioP1;P2;durP2;ratioP2
55710;SDS011;41612;51.994;5.880;2023-07-13T00:00:19;7.75;;;2.58;;
55710;SDS011;41612;51.994;5.880;2023-07-13T00:02:45;8.10;;;3.17;;
55710;SDS011;41612;51.994;5.880;2023-07-13T00:05:11;6.45;;;2.30;;
55710;SDS011;41612;51.994;5.880;2023-07-13T00:07:37;10.35;;;2.92;;
55710;SDS011;41612;51.994;5.880;2023-07-13T00:10:03;8.23;;;2.63;;
55710;SDS011;41612;51.994;5.880;2023-07-13T00:12:33;6.72;;;2.30;;
55710;SDS011;41612;51.994;5.880;2023-07-13T00:15:02;5.28;;;2.33;;
55710;SDS011;41612;51.994;5.880;2023-07-13T00:17:31;9.52;;;2.92;;
55710;SDS011;41612;51.994;5.880;2023-07-13T00:19:57;8.98;;;2.00;;
55710;SDS011;41612;51.994;5.880;2023-07-13T00:22:23;6.22;;;2.22;;
55710;SDS011;41612;51.994;5.880;2023-07-13T00:24:53;5.53;;;2.08;;
55710;SDS011;41612;51.994;5.880;2023-07-13T00:27:21;10.35;;;2.45;;
55710;SDS011;41612;51.994;5.880;2023-07-13T00:29:47;6.05;;;2.22;;
55710;SDS011;41612;51.994;5.880;2023-07-13T00:32:12;5.95;;;1.80;;
55710;SDS011;41612;51.994;5.880;2023-07-13T00:34:39;4.35;;;1.92;;
55710;SDS011;41612;51.994;5.880;2023-07-13T00:37:05;4.65;;;1.90;;
55710;SDS011;41612;51.994;5.880;2023-07-13T00:39:33;8.52;;;1.98;;
55710;SDS011;41612;51.994;5.880;2023-07-13T00:41:59;4.43;;;1.60;;
55710;SDS011;41612;51.994;5.880;2023-07-13T00:44:26;4.70;;;1.88;;
55710;SDS011;41612;51.994;5.880;2023-07-13T00:46:53;7.35;;;1.60;;
55710;SDS011;41612;51.994;5.880;2023-07-13T00:49:22;9.05;;;2.95;;
55710;SDS011;41612;51.994;5.880;2023-07-13T00:51:51;4.53;;;2.30;;
55710;SDS011;41612;51.994;5.880;2023-07-13T00:54:22;4.68;;;1.60;;
55710;SDS011;41612;51.994;5.880;2023-07-13T00:56:55;5.90;;;2.30;;
55710;SDS011;41612;51.994;5.880;2023-07-13T00:59:24;5.63;;;2.17;;
55710;SDS011;41612;51.994;5.880;2023-07-13T01:01:51;4.90;;;1.85;;
55710;SDS011;41612;51.994;5.880;2023-07-13T01:04:17;5.93;;;1.75;;
55710;SDS011;41612;51.994;5.880;2023-07-13T01:06:45;5.97;;;1.80;;
55710;SDS011;41612;51.994;5.880;2023-07-13T01:09:12;3.97;;;1.40;;
55710;SDS011;41612;51.994;5.880;2023-07-13T01:11:39;6.82;;;2.00;;
55710;SDS011;41612;51.994;5.880;2023-07-13T01:14:06;4.72;;;1.90;;
55710;SDS011;41612;51.994;5.880;2023-07-13T01:16:33;8.32;;;2.42;;
55710;SDS011;41612;51.994;5.880;2023-07-13T01:19:00;7.40;;;1.90;;
55710;SDS011;41612;51.994;5.880;2023-07-13T01:21:29;6.38;;;2.58;;
55710;SDS011;41612;51.994;5.880;2023-07-13T01:23:58;5.38;;;1.88;;
55710;SDS011;41612;51.994;5.880;2023-07-13T01:26:24;9.02;;;2.70;;
55710;SDS011;41612;51.994;5.880;2023-07-13T01:28:50;3.85;;;1.67;;
55710;SDS011;41612;51.994;5.880;2023-07-13T01:31:16;5.00;;;1.77;;
55710;SDS011;41612;51.994;5.880;2023-07-13T01:33:41;3.90;;;1.60;;
55710;SDS011;41612;51.994;5.880;2023-07-13T01:36:08;4.25;;;1.58;;
55710;SDS011;41612;51.994;5.880;2023-07-13T01:38:36;4.53;;;2.05;;
55710;SDS011;41612;51.994;5.880;2023-07-13T01:41:02;6.80;;;2.05;;
55710;SDS011;41612;51.994;5.880;2023-07-13T01:43:28;7.82;;;2.08;;
55710;SDS011;41612;51.994;5.880;2023-07-13T01:45:54;3.13;;;1.58;;
55710;SDS011;41612;51.994;5.880;2023-07-13T01:48:20;4.82;;;1.55;;
55710;SDS011;41612;51.994;5.880;2023-07-13T01:50:47;4.90;;;1.40;;
55710;SDS011;41612;51.994;5.880;2023-07-13T01:53:13;4.45;;;2.15;;
55710;SDS011;41612;51.994;5.880;2023-07-13T01:55:39;6.00;;;2.65;;
55710;SDS011;41612;51.994;5.880;2023-07-13T01:58:05;6.35;;;1.92;;
55710;SDS011;41612;51.994;5.880;2023-07-13T02:00:31;5.82;;;2.05;;
55710;SDS011;41612;51.994;5.880;2023-07-13T02:02:58;5.22;;;1.63;;
55710;SDS011;41612;51.994;5.880;2023-07-13T02:05:23;5.00;;;1.90;;
55710;SDS011;41612;51.994;5.880;2023-07-13T02:07:50;7.80;;;1.88;;
55710;SDS011;41612;51.994;5.880;2023-07-13T02:10:16;5.13;;;1.42;;
55710;SDS011;41612;51.994;5.880;2023-07-13T02:12:42;5.97;;;2.10;;
55710;SDS011;41612;51.994;5.880;2023-07-13T02:15:09;4.38;;;1.60;;
55710;SDS011;41612;51.994;5.880;2023-07-13T02:17:35;5.55;;;2.17;;
55710;SDS011;41612;51.994;5.880;2023-07-13T02:20:02;6.05;;;2.05;;
55710;SDS011;41612;51.994;5.880;2023-07-13T02:22:29;5.57;;;2.40;;
55710;SDS011;41612;51.994;5.880;2023-07-13T02:24:56;12.75;;;3.17;;
55710;SDS011;41612;51.994;5.880;2023-07-13T02:27:22;8.75;;;2.90;;
55710;SDS011;41612;51.994;5.880;2023-07-13T02:29:49;5.22;;;2.17;;
55710;SDS011;41612;51.994;5.880;2023-07-13T02:32:16;3.42;;;1.80;;
55710;SDS011;41612;51.994;5.880;2023-07-13T02:34:43;6.60;;;2.25;;
55710;SDS011;41612;51.994;5.880;2023-07-13T02:37:09;5.82;;;2.65;;
55710;SDS011;41612;51.994;5.880;2023-07-13T02:39:35;7.75;;;3.30;;
55710;SDS011;41612;51.994;5.880;2023-07-13T02:42:02;7.50;;;3.08;;
55710;SDS011;41612;51.994;5.880;2023-07-13T02:44:29;13.18;;;3.33;;
55710;SDS011;41612;51.994;5.880;2023-07-13T02:46:55;9.23;;;2.33;;
55710;SDS011;41612;51.994;5.880;2023-07-13T02:49:20;6.25;;;2.38;;
55710;SDS011;41612;51.994;5.880;2023-07-13T02:51:46;5.85;;;2.05;;
55710;SDS011;41612;51.994;5.880;2023-07-13T02:54:13;5.85;;;2.58;;
55710;SDS011;41612;51.994;5.880;2023-07-13T02:56:40;10.90;;;3.60;;
55710;SDS011;41612;51.994;5.880;2023-07-13T02:59:06;10.27;;;3.33;;
55710;SDS011;41612;51.994;5.880;2023-07-13T03:01:32;5.32;;;2.53;;
55710;SDS011;41612;51.994;5.880;2023-07-13T03:04:00;5.45;;;2.25;;
55710;SDS011;41612;51.994;5.880;2023-07-13T03:06:26;10.55;;;3.22;;
55710;SDS011;41612;51.994;5.880;2023-07-13T03:08:55;4.65;;;2.33;;
55710;SDS011;41612;51.994;5.880;2023-07-13T03:11:22;5.25;;;2.30;;
55710;SDS011;41612;51.994;5.880;2023-07-13T03:14:08;8.27;;;3.58;;
55710;SDS011;41612;51.994;5.880;2023-07-13T03:16:36;8.68;;;2.92;;
55710;SDS011;41612;51.994;5.880;2023-07-13T03:19:02;7.40;;;3.80;;
55710;SDS011;41612;51.994;5.880;2023-07-13T03:21:32;5.35;;;2.60;;
55710;SDS011;41612;51.994;5.880;2023-07-13T03:23:58;7.93;;;3.78;;
55710;SDS011;41612;51.994;5.880;2023-07-13T03:26:24;4.78;;;2.38;;
55710;SDS011;41612;51.994;5.880;2023-07-13T03:28:50;7.40;;;3.35;;
55710;SDS011;41612;51.994;5.880;2023-07-13T03:31:21;6.05;;;2.88;;
55710;SDS011;41612;51.994;5.880;2023-07-13T03:33:49;11.25;;;3.55;;
55710;SDS011;41612;51.994;5.880;2023-07-13T03:36:17;7.20;;;3.10;;
55710;SDS011;41612;51.994;5.880;2023-07-13T03:38:47;6.72;;;3.47;;
55710;SDS011;41612;51.994;5.880;2023-07-13T03:41:16;10.75;;;2.88;;
55710;SDS011;41612;51.994;5.880;2023-07-13T03:43:43;7.53;;;2.88;;
55710;SDS011;41612;51.994;5.880;2023-07-13T03:46:10;7.60;;;3.25;;
55710;SDS011;41612;51.994;5.880;2023-07-13T03:48:36;7.50;;;3.30;;
55710;SDS011;41612;51.994;5.880;2023-07-13T03:51:02;10.80;;;4.07;;
55710;SDS011;41612;51.994;5.880;2023-07-13T03:53:28;11.23;;;3.90;;
55710;SDS011;41612;51.994;5.880;2023-07-13T03:55:54;10.27;;;3.75;;
55710;SDS011;41612;51.994;5.880;2023-07-13T03:58:33;7.47;;;2.90;;
55710;SDS011;41612;51.994;5.880;2023-07-13T04:01:09;5.75;;;3.13;;
55710;SDS011;41612;51.994;5.880;2023-07-13T04:03:36;7.22;;;2.55;;
55710;SDS011;41612;51.994;5.880;2023-07-13T04:06:03;5.70;;;3.13;;
55710;SDS011;41612;51.994;5.880;2023-07-13T04:08:34;6.65;;;2.72;;
55710;SDS011;41612;51.994;5.880;2023-07-13T04:11:03;10.43;;;3.80;;
55710;SDS011;41612;51.994;5.880;2023-07-13T04:13:29;8.60;;;2.50;;
55710;SDS011;41612;51.994;5.880;2023-07-13T04:15:55;8.07;;;3.08;;
55710;SDS011;41612;51.994;5.880;2023-07-13T04:18:21;9.43;;;3.15;;
55710;SDS011;41612;51.994;5.880;2023-07-13T04:20:47;4.15;;;2.20;;
55710;SDS011;41612;51.994;5.880;2023-07-13T04:23:14;14.02;;;5.05;;
55710;SDS011;41612;51.994;5.880;2023-07-13T04:25:47;6.40;;;2.63;;
55710;SDS011;41612;51.994;5.880;2023-07-13T04:28:15;8.75;;;3.70;;
55710;SDS011;41612;51.994;5.880;2023-07-13T04:30:42;8.43;;;3.00;;
55710;SDS011;41612;51.994;5.880;2023-07-13T04:33:08;8.35;;;3.60;;
55710;SDS011;41612;51.994;5.880;2023-07-13T04:35:34;5.97;;;2.30;;
55710;SDS011;41612;51.994;5.880;2023-07-13T04:38:00;7.13;;;3.47;;
55710;SDS011;41612;51.994;5.880;2023-07-13T04:40:27;9.30;;;4.25;;
55710;SDS011;41612;51.994;5.880;2023-07-13T04:42:54;7.35;;;4.10;;
55710;SDS011;41612;51.994;5.880;2023-07-13T04:45:21;10.27;;;4.03;;
55710;SDS011;41612;51.994;5.880;2023-07-13T04:47:49;12.45;;;4.65;;
55710;SDS011;41612;51.994;5.880;2023-07-13T04:50:15;8.10;;;3.90;;
55710;SDS011;41612;51.994;5.880;2023-07-13T04:52:45;7.35;;;3.45;;
55710;SDS011;41612;51.994;5.880;2023-07-13T04:55:11;11.68;;;5.18;;
55710;SDS011;41612;51.994;5.880;2023-07-13T04:57:37;12.07;;;5.47;;
55710;SDS011;41612;51.994;5.880;2023-07-13T05:00:03;10.90;;;3.60;;
55710;SDS011;41612;51.994;5.880;2023-07-13T05:02:30;8.70;;;3.90;;
55710;SDS011;41612;51.994;5.880;2023-07-13T05:04:57;9.40;;;4.57;;
55710;SDS011;41612;51.994;5.880;2023-07-13T05:07:22;13.23;;;4.43;;
55710;SDS011;41612;51.994;5.880;2023-07-13T05:09:48;9.15;;;3.72;;
55710;SDS011;41612;51.994;5.880;2023-07-13T05:12:14;8.95;;;3.88;;
55710;SDS011;41612;51.994;5.880;2023-07-13T05:14:40;14.13;;;6.00;;
55710;SDS011;41612;51.994;5.880;2023-07-13T05:17:05;12.88;;;6.18;;
55710;SDS011;41612;51.994;5.880;2023-07-13T05:19:31;9.82;;;3.60;;
55710;SDS011;41612;51.994;5.880;2023-07-13T05:21:57;10.27;;;4.72;;
55710;SDS011;41612;51.994;5.880;2023-07-13T05:24:26;11.27;;;4.93;;
55710;SDS011;41612;51.994;5.880;2023-07-13T05:26:52;7.72;;;3.10;;
55710;SDS011;41612;51.994;5.880;2023-07-13T05:29:19;9.77;;;4.03;;
55710;SDS011;41612;51.994;5.880;2023-07-13T05:31:45;15.10;;;6.15;;
55710;SDS011;41612;51.994;5.880;2023-07-13T05:34:11;13.50;;;4.78;;
55710;SDS011;41612;51.994;5.880;2023-07-13T05:36:37;12.52;;;3.92;;
55710;SDS011;41612;51.994;5.880;2023-07-13T05:39:03;10.40;;;4.00;;
55710;SDS011;41612;51.994;5.880;2023-07-13T05:41:29;15.95;;;5.97;;
55710;SDS011;41612;51.994;5.880;2023-07-13T05:43:58;17.33;;;7.00;;
55710;SDS011;41612;51.994;5.880;2023-07-13T05:46:24;15.25;;;5.47;;
55710;SDS011;41612;51.994;5.880;2023-07-13T05:48:50;13.50;;;4.80;;
55710;SDS011;41612;51.994;5.880;2023-07-13T05:51:16;14.55;;;6.30;;
55710;SDS011;41612;51.994;5.880;2023-07-13T05:53:41;16.40;;;7.47;;
55710;SDS011;41612;51.994;5.880;2023-07-13T05:56:07;16.63;;;6.05;;
55710;SDS011;41612;51.994;5.880;2023-07-13T05:58:33;8.52;;;4.47;;
55710;SDS011;41612;51.994;5.880;2023-07-13T06:01:01;18.52;;;7.53;;
55710;SDS011;41612;51.994;5.880;2023-07-13T06:03:32;20.25;;;7.40;;
55710;SDS011;41612;51.994;5.880;2023-07-13T06:05:59;14.52;;;7.10;;
55710;SDS011;41612;51.994;5.880;2023-07-13T06:08:28;10.23;;;5.18;;
55710;SDS011;41612;51.994;5.880;2023-07-13T06:10:54;18.27;;;6.60;;
55710;SDS011;41612;51.994;5.880;2023-07-13T06:13:26;14.75;;;5.65;;
55710;SDS011;41612;51.994;5.880;2023-07-13T06:15:52;17.42;;;7.97;;
55710;SDS011;41612;51.994;5.880;2023-07-13T06:18:18;20.02;;;8.55;;
55710;SDS011;41612;51.994;5.880;2023-07-13T06:20:43;27.83;;;11.15;;
55710;SDS011;41612;51.994;5.880;2023-07-13T06:23:09;13.95;;;8.10;;
55710;SDS011;41612;51.994;5.880;2023-07-13T06:25:35;17.73;;;8.38;;
55710;SDS011;41612;51.994;5.880;2023-07-13T06:28:00;9.40;;;4.03;;
55710;SDS011;41612;51.994;5.880;2023-07-13T06:30:27;17.90;;;7.35;;
55710;SDS011;41612;51.994;5.880;2023-07-13T06:32:53;14.43;;;7.40;;
55710;SDS011;41612;51.994;5.880;2023-07-13T06:35:19;8.85;;;4.60;;
55710;SDS011;41612;51.994;5.880;2023-07-13T06:37:44;20.63;;;11.48;;
55710;SDS011;41612;51.994;5.880;2023-07-13T06:40:12;13.13;;;7.55;;
55710;SDS011;41612;51.994;5.880;2023-07-13T06:42:38;12.20;;;5.63;;
55710;SDS011;41612;51.994;5.880;2023-07-13T06:45:04;29.98;;;12.82;;
55710;SDS011;41612;51.994;5.880;2023-07-13T06:47:30;24.65;;;13.07;;
55710;SDS011;41612;51.994;5.880;2023-07-13T06:49:57;21.67;;;10.50;;
55710;SDS011;41612;51.994;5.880;2023-07-13T06:52:22;18.40;;;8.82;;
55710;SDS011;41612;51.994;5.880;2023-07-13T06:54:48;19.52;;;10.73;;
55710;SDS011;41612;51.994;5.880;2023-07-13T06:57:14;17.20;;;11.57;;
55710;SDS011;41612;51.994;5.880;2023-07-13T06:59:40;19.50;;;11.13;;
55710;SDS011;41612;51.994;5.880;2023-07-13T07:02:05;25.30;;;14.23;;
55710;SDS011;41612;51.994;5.880;2023-07-13T07:04:33;18.35;;;11.38;;
55710;SDS011;41612;51.994;5.880;2023-07-13T07:07:01;16.52;;;8.68;;
55710;SDS011;41612;51.994;5.880;2023-07-13T07:09:27;27.55;;;15.10;;
55710;SDS011;41612;51.994;5.880;2023-07-13T07:11:55;18.50;;;12.48;;
55710;SDS011;41612;51.994;5.880;2023-07-13T07:14:21;16.67;;;10.18;;
55710;SDS011;41612;51.994;5.880;2023-07-13T07:16:46;20.80;;;12.20;;
55710;SDS011;41612;51.994;5.880;2023-07-13T07:19:12;20.65;;;11.45;;
55710;SDS011;41612;51.994;5.880;2023-07-13T07:21:38;19.58;;;10.07;;
55710;SDS011;41612;51.994;5.880;2023-07-13T07:24:04;20.08;;;11.70;;
55710;SDS011;41612;51.994;5.880;2023-07-13T07:26:30;26.65;;;13.30;;
55710;SDS011;41612;51.994;5.880;2023-07-13T07:28:56;21.45;;;10.02;;
55710;SDS011;41612;51.994;5.880;2023-07-13T07:31:22;23.98;;;11.30;;
55710;SDS011;41612;51.994;5.880;2023-07-13T07:33:48;27.45;;;12.57;;
55710;SDS011;41612;51.994;5.880;2023-07-13T07:36:17;25.73;;;13.32;;
55710;SDS011;41612;51.994;5.880;2023-07-13T07:38:43;18.48;;;9.65;;
55710;SDS011;41612;51.994;5.880;2023-07-13T07:41:09;22.45;;;13.55;;
55710;SDS011;41612;51.994;5.880;2023-07-13T07:43:35;30.38;;;14.65;;
55710;SDS011;41612;51.994;5.880;2023-07-13T07:46:02;26.23;;;14.05;;
55710;SDS011;41612;51.994;5.880;2023-07-13T07:48:28;22.70;;;12.32;;
55710;SDS011;41612;51.994;5.880;2023-07-13T07:50:53;28.00;;;14.95;;
55710;SDS011;41612;51.994;5.880;2023-07-13T07:53:19;23.45;;;15.20;;
55710;SDS011;41612;51.994;5.880;2023-07-13T07:55:45;25.52;;;14.77;;
55710;SDS011;41612;51.994;5.880;2023-07-13T07:58:11;25.73;;;13.30;;
55710;SDS011;41612;51.994;5.880;2023-07-13T08:00:37;20.05;;;12.38;;
55710;SDS011;41612;51.994;5.880;2023-07-13T08:03:03;21.08;;;12.18;;
55710;SDS011;41612;51.994;5.880;2023-07-13T08:05:29;17.55;;;10.63;;
55710;SDS011;41612;51.994;5.880;2023-07-13T08:07:54;22.00;;;13.93;;
55710;SDS011;41612;51.994;5.880;2023-07-13T08:10:20;23.92;;;12.75;;
55710;SDS011;41612;51.994;5.880;2023-07-13T08:12:46;22.58;;;12.48;;
55710;SDS011;41612;51.994;5.880;2023-07-13T08:15:13;23.85;;;10.85;;
55710;SDS011;41612;51.994;5.880;2023-07-13T08:17:40;20.35;;;11.55;;
55710;SDS011;41612;51.994;5.880;2023-07-13T08:20:06;18.48;;;12.20;;
55710;SDS011;41612;51.994;5.880;2023-07-13T08:22:34;22.90;;;13.07;;
55710;SDS011;41612;51.994;5.880;2023-07-13T08:25:00;23.88;;;14.13;;
55710;SDS011;41612;51.994;5.880;2023-07-13T08:27:27;18.95;;;8.30;;
55710;SDS011;41612;51.994;5.880;2023-07-13T08:29:54;13.63;;;8.48;;
55710;SDS011;41612;51.994;5.880;2023-07-13T08:32:20;22.35;;;12.48;;
55710;SDS011;41612;51.994;5.880;2023-07-13T08:34:48;22.17;;;11.90;;
55710;SDS011;41612;51.994;5.880;2023-07-13T08:37:14;20.80;;;12.48;;
55710;SDS011;41612;51.994;5.880;2023-07-13T08:39:41;23.40;;;12.15;;
55710;SDS011;41612;51.994;5.880;2023-07-13T08:42:15;18.50;;;10.93;;
55710;SDS011;41612;51.994;5.880;2023-07-13T08:47:35;12.85;;;7.43;;
55710;SDS011;41612;51.994;5.880;2023-07-13T08:50:05;22.67;;;12.70;;
55710;SDS011;41612;51.994;5.880;2023-07-13T08:52:36;18.20;;;11.32;;
55710;SDS011;41612;51.994;5.880;2023-07-13T08:57:46;13.63;;;9.23;;
55710;SDS011;41612;51.994;5.880;2023-07-13T09:00:18;19.35;;;11.57;;
55710;SDS011;41612;51.994;5.880;2023-07-13T09:05:33;14.27;;;8.13;;
55710;SDS011;41612;51.994;5.880;2023-07-13T09:10:58;11.88;;;7.13;;
55710;SDS011;41612;51.994;5.880;2023-07-13T09:13:37;16.83;;;8.30;;
55710;SDS011;41612;51.994;5.880;2023-07-13T09:16:12;12.48;;;7.22;;
55710;SDS011;41612;51.994;5.880;2023-07-13T09:18:39;12.38;;;7.25;;
55710;SDS011;41612;51.994;5.880;2023-07-13T09:23:36;11.65;;;6.53;;
55710;SDS011;41612;51.994;5.880;2023-07-13T09:26:18;13.75;;;6.63;;
55710;SDS011;41612;51.994;5.880;2023-07-13T09:29:32;14.48;;;5.40;;
55710;SDS011;41612;51.994;5.880;2023-07-13T09:31:43;10.00;;;5.25;;
55710;SDS011;41612;51.994;5.880;2023-07-13T09:34:13;10.70;;;5.85;;
55710;SDS011;41612;51.994;5.880;2023-07-13T09:36:39;8.80;;;5.38;;
55710;SDS011;41612;51.994;5.880;2023-07-13T09:41:39;11.70;;;6.40;;
55710;SDS011;41612;51.994;5.880;2023-07-13T09:44:36;13.88;;;5.32;;
55710;SDS011;41612;51.994;5.880;2023-07-13T09:47:03;7.90;;;3.70;;
55710;SDS011;41612;51.994;5.880;2023-07-13T09:49:47;9.60;;;4.10;;
55710;SDS011;41612;51.994;5.880;2023-07-13T09:52:18;8.88;;;4.38;;
55710;SDS011;41612;51.994;5.880;2023-07-13T09:54:44;5.88;;;3.72;;
55710;SDS011;41612;51.994;5.880;2023-07-13T09:57:17;10.45;;;4.75;;
55710;SDS011;41612;51.994;5.880;2023-07-13T09:59:46;8.93;;;4.90;;
55710;SDS011;41612;51.994;5.880;2023-07-13T10:02:23;9.15;;;4.57;;
55710;SDS011;41612;51.994;5.880;2023-07-13T10:05:11;9.43;;;5.05;;
55710;SDS011;41612;51.994;5.880;2023-07-13T10:07:40;13.20;;;6.07;;
55710;SDS011;41612;51.994;5.880;2023-07-13T10:10:15;10.57;;;4.88;;
55710;SDS011;41612;51.994;5.880;2023-07-13T10:12:46;17.15;;;6.20;;
55710;SDS011;41612;51.994;5.880;2023-07-13T10:15:17;12.27;;;5.32;;
55710;SDS011;41612;51.994;5.880;2023-07-13T10:17:45;8.32;;;4.53;;
55710;SDS011;41612;51.994;5.880;2023-07-13T10:20:11;12.82;;;5.07;;
55710;SDS011;41612;51.994;5.880;2023-07-13T10:25:36;10.88;;;4.80;;
55710;SDS011;41612;51.994;5.880;2023-07-13T10:30:49;14.73;;;5.18;;
55710;SDS011;41612;51.994;5.880;2023-07-13T10:38:56;10.30;;;4.10;;
55710;SDS011;41612;51.994;5.880;2023-07-13T10:41:26;16.08;;;4.03;;
55710;SDS011;41612;51.994;5.880;2023-07-13T10:44:03;10.75;;;4.97;;
55710;SDS011;41612;51.994;5.880;2023-07-13T10:46:41;8.43;;;3.70;;
55710;SDS011;41612;51.994;5.880;2023-07-13T11:29:36;7.53;;;3.00;;
55710;SDS011;41612;51.994;5.880;2023-07-13T11:32:20;5.22;;;2.70;;
55710;SDS011;41612;51.994;5.880;2023-07-13T11:34:49;4.30;;;2.05;;
55710;SDS011;41612;51.994;5.880;2023-07-13T11:37:16;4.97;;;2.25;;
55710;SDS011;41612;51.994;5.880;2023-07-13T11:39:44;4.35;;;2.05;;
55710;SDS011;41612;51.994;5.880;2023-07-13T11:42:16;4.72;;;2.00;;
55710;SDS011;41612;51.994;5.880;2023-07-13T11:44:44;5.35;;;2.00;;
55710;SDS011;41612;51.994;5.880;2023-07-13T11:47:22;6.18;;;1.90;;
55710;SDS011;41612;51.994;5.880;2023-07-13T11:49:54;6.88;;;2.30;;
55710;SDS011;41612;51.994;5.880;2023-07-13T11:52:35;5.32;;;2.03;;
55710;SDS011;41612;51.994;5.880;2023-07-13T11:55:08;7.35;;;2.30;;
55710;SDS011;41612;51.994;5.880;2023-07-13T11:57:44;4.35;;;2.10;;
55710;SDS011;41612;51.994;5.880;2023-07-13T12:00:16;4.88;;;2.15;;
55710;SDS011;41612;51.994;5.880;2023-07-13T12:02:47;3.60;;;2.20;;
55710;SDS011;41612;51.994;5.880;2023-07-13T12:05:16;6.53;;;2.10;;
55710;SDS011;41612;51.994;5.880;2023-07-13T12:07:44;5.97;;;2.33;;
55710;SDS011;41612;51.994;5.880;2023-07-13T12:10:23;6.07;;;2.35;;
55710;SDS011;41612;51.994;5.880;2023-07-13T12:15:29;6.70;;;3.10;;
55710;SDS011;41612;51.994;5.880;2023-07-13T12:18:11;6.60;;;2.60;;
55710;SDS011;41612;51.994;5.880;2023-07-13T12:20:39;5.13;;;2.25;;
55710;SDS011;41612;51.994;5.880;2023-07-13T12:23:36;3.80;;;2.25;;
55710;SDS011;41612;51.994;5.880;2023-07-13T12:26:05;5.75;;;2.60;;
55710;SDS011;41612;51.994;5.880;2023-07-13T12:29:48;7.30;;;2.60;;
55710;SDS011;41612;51.994;5.880;2023-07-13T12:32:19;3.35;;;1.83;;
55710;SDS011;41612;51.994;5.880;2023-07-13T12:34:55;5.30;;;2.33;;
55710;SDS011;41612;51.994;5.880;2023-07-13T12:37:23;5.82;;;2.30;;
55710;SDS011;41612;51.994;5.880;2023-07-13T12:39:49;5.28;;;2.75;;
55710;SDS011;41612;51.994;5.880;2023-07-13T12:42:20;4.25;;;1.75;;
55710;SDS011;41612;51.994;5.880;2023-07-13T12:45:01;5.57;;;2.25;;
55710;SDS011;41612;51.994;5.880;2023-07-13T12:47:41;3.08;;;1.52;;
55710;SDS011;41612;51.994;5.880;2023-07-13T12:50:21;3.42;;;1.75;;
55710;SDS011;41612;51.994;5.880;2023-07-13T12:52:53;4.50;;;2.08;;
55710;SDS011;41612;51.994;5.880;2023-07-13T12:55:20;3.17;;;1.50;;
55710;SDS011;41612;51.994;5.880;2023-07-13T12:57:51;3.33;;;1.88;;
55710;SDS011;41612;51.994;5.880;2023-07-13T13:00:28;4.47;;;1.73;;
55710;SDS011;41612;51.994;5.880;2023-07-13T13:02:56;2.47;;;1.55;;
55710;SDS011;41612;51.994;5.880;2023-07-13T13:05:25;3.17;;;1.80;;
55710;SDS011;41612;51.994;5.880;2023-07-13T13:07:51;4.38;;;1.92;;
55710;SDS011;41612;51.994;5.880;2023-07-13T13:10:17;3.80;;;1.65;;
55710;SDS011;41612;51.994;5.880;2023-07-13T13:12:46;6.25;;;1.60;;
55710;SDS011;41612;51.994;5.880;2023-07-13T13:15:13;3.35;;;1.80;;
55710;SDS011;41612;51.994;5.880;2023-07-13T13:17:39;5.75;;;1.83;;
55710;SDS011;41612;51.994;5.880;2023-07-13T13:20:15;3.13;;;1.40;;
55710;SDS011;41612;51.994;5.880;2023-07-13T13:22:46;5.05;;;1.55;;
55710;SDS011;41612;51.994;5.880;2023-07-13T13:25:13;2.97;;;1.60;;
55710;SDS011;41612;51.994;5.880;2023-07-13T13:27:43;3.80;;;1.58;;
55710;SDS011;41612;51.994;5.880;2023-07-13T13:30:13;5.13;;;2.15;;
55710;SDS011;41612;51.994;5.880;2023-07-13T13:32:41;4.10;;;1.80;;
55710;SDS011;41612;51.994;5.880;2023-07-13T13:35:13;3.67;;;1.55;;
55710;SDS011;41612;51.994;5.880;2023-07-13T13:37:40;4.57;;;1.75;;
55710;SDS011;41612;51.994;5.880;2023-07-13T13:42:40;3.75;;;1.83;;
55710;SDS011;41612;51.994;5.880;2023-07-13T13:45:07;4.57;;;1.85;;
55710;SDS011;41612;51.994;5.880;2023-07-13T13:47:38;4.68;;;1.83;;
55710;SDS011;41612;51.994;5.880;2023-07-13T13:50:16;4.65;;;1.88;;
55710;SDS011;41612;51.994;5.880;2023-07-13T13:52:44;5.13;;;1.75;;
55710;SDS011;41612;51.994;5.880;2023-07-13T13:55:13;3.08;;;1.60;;
55710;SDS011;41612;51.994;5.880;2023-07-13T13:57:40;4.75;;;2.05;;
55710;SDS011;41612;51.994;5.880;2023-07-13T14:00:08;2.67;;;1.42;;
55710;SDS011;41612;51.994;5.880;2023-07-13T14:02:39;4.60;;;1.77;;
55710;SDS011;41612;51.994;5.880;2023-07-13T14:05:11;3.25;;;1.67;;
55710;SDS011;41612;51.994;5.880;2023-07-13T14:07:38;5.63;;;1.88;;
55710;SDS011;41612;51.994;5.880;2023-07-13T14:10:08;3.97;;;1.60;;
55710;SDS011;41612;51.994;5.880;2023-07-13T14:12:38;4.53;;;1.92;;
55710;SDS011;41612;51.994;5.880;2023-07-13T14:15:04;2.40;;;1.17;;
55710;SDS011;41612;51.994;5.880;2023-07-13T14:17:31;3.45;;;1.52;;
55710;SDS011;41612;51.994;5.880;2023-07-13T14:19:58;3.78;;;1.60;;
55710;SDS011;41612;51.994;5.880;2023-07-13T14:22:24;3.30;;;1.60;;
55710;SDS011;41612;51.994;5.880;2023-07-13T14:24:54;4.43;;;2.13;;
55710;SDS011;41612;51.994;5.880;2023-07-13T14:27:21;3.42;;;1.70;;
55710;SDS011;41612;51.994;5.880;2023-07-13T14:29:47;3.78;;;1.65;;
55710;SDS011;41612;51.994;5.880;2023-07-13T14:32:13;3.30;;;1.38;;
55710;SDS011;41612;51.994;5.880;2023-07-13T14:34:39;4.40;;;1.83;;
55710;SDS011;41612;51.994;5.880;2023-07-13T14:37:05;3.15;;;1.42;;
55710;SDS011;41612;51.994;5.880;2023-07-13T14:39:37;3.80;;;1.65;;
55710;SDS011;41612;51.994;5.880;2023-07-13T14:42:03;3.67;;;1.92;;
55710;SDS011;41612;51.994;5.880;2023-07-13T14:44:30;5.30;;;1.65;;
55710;SDS011;41612;51.994;5.880;2023-07-13T14:46:57;3.30;;;1.98;;
55710;SDS011;41612;51.994;5.880;2023-07-13T14:49:27;7.13;;;2.35;;
55710;SDS011;41612;51.994;5.880;2023-07-13T14:51:59;6.10;;;2.23;;
55710;SDS011;41612;51.994;5.880;2023-07-13T14:54:29;6.47;;;2.10;;
55710;SDS011;41612;51.994;5.880;2023-07-13T14:56:54;3.63;;;1.60;;
55710;SDS011;41612;51.994;5.880;2023-07-13T14:59:20;3.53;;;1.58;;
55710;SDS011;41612;51.994;5.880;2023-07-13T15:01:47;2.92;;;1.67;;
55710;SDS011;41612;51.994;5.880;2023-07-13T15:04:14;3.97;;;1.70;;
55710;SDS011;41612;51.994;5.880;2023-07-13T15:06:54;3.40;;;1.40;;
55710;SDS011;41612;51.994;5.880;2023-07-13T15:09:20;3.95;;;2.53;;
55710;SDS011;41612;51.994;5.880;2023-07-13T15:11:46;4.03;;;1.90;;
55710;SDS011;41612;51.994;5.880;2023-07-13T15:14:12;5.28;;;2.10;;
55710;SDS011;41612;51.994;5.880;2023-07-13T15:16:38;3.17;;;1.42;;
55710;SDS011;41612;51.994;5.880;2023-07-13T15:19:04;3.40;;;1.75;;
55710;SDS011;41612;51.994;5.880;2023-07-13T15:21:29;2.53;;;1.30;;
55710;SDS011;41612;51.994;5.880;2023-07-13T15:24:00;2.90;;;1.50;;
55710;SDS011;41612;51.994;5.880;2023-07-13T15:26:26;5.07;;;2.10;;
55710;SDS011;41612;51.994;5.880;2023-07-13T15:28:52;3.95;;;1.70;;
55710;SDS011;41612;51.994;5.880;2023-07-13T15:31:22;3.75;;;1.90;;
55710;SDS011;41612;51.994;5.880;2023-07-13T15:33:51;5.00;;;2.17;;
55710;SDS011;41612;51.994;5.880;2023-07-13T15:36:18;2.67;;;1.55;;
55710;SDS011;41612;51.994;5.880;2023-07-13T15:38:45;4.25;;;2.17;;
55710;SDS011;41612;51.994;5.880;2023-07-13T15:43:42;2.65;;;1.60;;
55710;SDS011;41612;51.994;5.880;2023-07-13T15:46:08;3.17;;;1.58;;
55710;SDS011;41612;51.994;5.880;2023-07-13T15:48:35;5.88;;;2.30;;
55710;SDS011;41612;51.994;5.880;2023-07-13T15:51:02;5.70;;;1.98;;
55710;SDS011;41612;51.994;5.880;2023-07-13T15:53:30;6.82;;;2.10;;
55710;SDS011;41612;51.994;5.880;2023-07-13T15:55:58;4.10;;;2.25;;
55710;SDS011;41612;51.994;5.880;2023-07-13T15:58:25;4.00;;;2.20;;
55710;SDS011;41612;51.994;5.880;2023-07-13T16:00:51;4.93;;;2.08;;
55710;SDS011;41612;51.994;5.880;2023-07-13T16:03:21;4.78;;;1.73;;